sensor_id;sensor_type;location;lat;lon;timestamp;pressure;altitude;pressure_sealevel;temperature;humidity
70468;BME280;57934;51.532;7.684;2023-03-07T00:01:37;98643.97;;;1.39;100.00
70468;BME280;57934;51.532;7.684;2023-03-07T00:04:03;98633.31;;;1.34;100.00
70468;BME280;57934;51.532;7.684;2023-03-07T00:06:30;98635.91;;;1.34;100.00
70468;BME280;57934;51.532;7.684;2023-03-07T00:08:58;98633.56;;;1.39;100.00
70468;BME280;57934;51.532;7.684;2023-03-07T00:11:25;98630.63;;;1.42;100.00
70468;BME280;57934;51.532;7.684;2023-03-07T00:13:52;98635.38;;;1.39;100.00
70468;BME280;57934;51.532;7.684;2023-03-07T00:16:20;98632.22;;;1.43;100.00
70468;BME280;57934;51.532;7.684;2023-03-07T00:18:47;98620.25;;;1.42;100.00
70468;BME280;57934;51.532;7.684;2023-03-07T00:21:17;98629.03;;;1.41;100.00
70468;BME280;57934;51.532;7.684;2023-03-07T00:23:44;98629.47;;;1.45;100.00
70468;BME280;57934;51.532;7.684;2023-03-07T00:26:16;98640.47;;;1.47;100.00
70468;BME280;57934;51.532;7.684;2023-03-07T00:28:46;98630.72;;;1.49;100.00
70468;BME280;57934;51.532;7.684;2023-03-07T00:31:13;98635.13;;;1.49;100.00
70468;BME280;57934;51.532;7.684;2023-03-07T00:33:39;98627.16;;;1.50;100.00
70468;BME280;57934;51.532;7.684;2023-03-07T00:36:10;98618.09;;;1.46;100.00
70468;BME280;57934;51.532;7.684;2023-03-07T00:38:37;98616.94;;;1.49;100.00
70468;BME280;57934;51.532;7.684;2023-03-07T00:41:08;98614.16;;;1.50;100.00
70468;BME280;57934;51.532;7.684;2023-03-07T00:43:35;98618.66;;;1.56;100.00
70468;BME280;57934;51.532;7.684;2023-03-07T00:46:02;98605.22;;;1.53;100.00
70468;BME280;57934;51.532;7.684;2023-03-07T00:48:29;98615.25;;;1.56;100.00
70468;BME280;57934;51.532;7.684;2023-03-07T00:50:55;98609.72;;;1.59;100.00
70468;BME280;57934;51.532;7.684;2023-03-07T00:53:24;98615.72;;;1.59;100.00
70468;BME280;57934;51.532;7.684;2023-03-07T00:58:24;98607.03;;;1.67;100.00
70468;BME280;57934;51.532;7.684;2023-03-07T01:00:50;98600.47;;;1.71;100.00
70468;BME280;57934;51.532;7.684;2023-03-07T01:03:16;98610.38;;;1.76;100.00
70468;BME280;57934;51.532;7.684;2023-03-07T01:05:43;98597.88;;;1.71;100.00
70468;BME280;57934;51.532;7.684;2023-03-07T01:08:10;98603.88;;;1.72;100.00
70468;BME280;57934;51.532;7.684;2023-03-07T01:10:36;98605.69;;;1.71;100.00
70468;BME280;57934;51.532;7.684;2023-03-07T01:13:04;98603.72;;;1.73;100.00
70468;BME280;57934;51.532;7.684;2023-03-07T01:15:30;98597.19;;;1.77;100.00
70468;BME280;57934;51.532;7.684;2023-03-07T01:17:57;98592.78;;;1.78;100.00
70468;BME280;57934;51.532;7.684;2023-03-07T01:20:23;98597.97;;;1.78;100.00
70468;BME280;57934;51.532;7.684;2023-03-07T01:22:49;98593.06;;;1.83;100.00
70468;BME280;57934;51.532;7.684;2023-03-07T01:25:15;98602.91;;;1.87;100.00
70468;BME280;57934;51.532;7.684;2023-03-07T01:27:42;98588.94;;;1.88;100.00
70468;BME280;57934;51.532;7.684;2023-03-07T01:30:08;98580.63;;;1.93;100.00
70468;BME280;57934;51.532;7.684;2023-03-07T01:32:37;98584.63;;;1.96;100.00
70468;BME280;57934;51.532;7.684;2023-03-07T01:35:03;98578.81;;;1.94;100.00
70468;BME280;57934;51.532;7.684;2023-03-07T01:37:30;98584.91;;;2.01;100.00
70468;BME280;57934;51.532;7.684;2023-03-07T01:39:56;98580.97;;;2.05;100.00
70468;BME280;57934;51.532;7.684;2023-03-07T01:42:23;98576.91;;;2.02;100.00
70468;BME280;57934;51.532;7.684;2023-03-07T01:47:58;98577.44;;;2.12;100.00
70468;BME280;57934;51.532;7.684;2023-03-07T01:50:25;98583.66;;;2.11;100.00
70468;BME280;57934;51.532;7.684;2023-03-07T01:53:01;98579.69;;;2.15;100.00
70468;BME280;57934;51.532;7.684;2023-03-07T01:55:32;98575.28;;;2.16;100.00
70468;BME280;57934;51.532;7.684;2023-03-07T01:58:09;98573.13;;;2.20;100.00
70468;BME280;57934;51.532;7.684;2023-03-07T02:00:38;98570.72;;;2.18;100.00
70468;BME280;57934;51.532;7.684;2023-03-07T02:05:46;98558.63;;;2.25;100.00
70468;BME280;57934;51.532;7.684;2023-03-07T02:08:16;98568.56;;;2.22;100.00
70468;BME280;57934;51.532;7.684;2023-03-07T02:10:43;98553.34;;;2.19;100.00
70468;BME280;57934;51.532;7.684;2023-03-07T02:13:10;98550.19;;;2.23;100.00
70468;BME280;57934;51.532;7.684;2023-03-07T02:15:37;98548.22;;;2.25;100.00
70468;BME280;57934;51.532;7.684;2023-03-07T02:18:04;98544.25;;;2.29;100.00
70468;BME280;57934;51.532;7.684;2023-03-07T02:23:28;98533.41;;;2.26;100.00
70468;BME280;57934;51.532;7.684;2023-03-07T02:26:07;98536.44;;;2.29;100.00
70468;BME280;57934;51.532;7.684;2023-03-07T02:28:35;98540.66;;;2.30;100.00
70468;BME280;57934;51.532;7.684;2023-03-07T02:31:05;98535.91;;;2.34;100.00
70468;BME280;57934;51.532;7.684;2023-03-07T02:33:34;98519.72;;;2.38;100.00
70468;BME280;57934;51.532;7.684;2023-03-07T02:36:07;98524.50;;;2.35;100.00
70468;BME280;57934;51.532;7.684;2023-03-07T02:38:39;98527.09;;;2.35;100.00
70468;BME280;57934;51.532;7.684;2023-03-07T02:41:10;98525.75;;;2.39;100.00
70468;BME280;57934;51.532;7.684;2023-03-07T02:43:37;98519.19;;;2.43;100.00
70468;BME280;57934;51.532;7.684;2023-03-07T02:46:03;98521.00;;;2.43;100.00
70468;BME280;57934;51.532;7.684;2023-03-07T02:48:30;98520.72;;;2.37;100.00
70468;BME280;57934;51.532;7.684;2023-03-07T02:50:56;98527.97;;;2.42;100.00
70468;BME280;57934;51.532;7.684;2023-03-07T02:53:22;98517.84;;;2.47;100.00
70468;BME280;57934;51.532;7.684;2023-03-07T02:55:48;98516.84;;;2.48;100.00
70468;BME280;57934;51.532;7.684;2023-03-07T02:58:15;98516.41;;;2.45;100.00
70468;BME280;57934;51.532;7.684;2023-03-07T03:00:41;98506.63;;;2.47;100.00
70468;BME280;57934;51.532;7.684;2023-03-07T03:03:08;98515.41;;;2.46;100.00
70468;BME280;57934;51.532;7.684;2023-03-07T03:05:34;98511.63;;;2.48;100.00
70468;BME280;57934;51.532;7.684;2023-03-07T03:08:01;98512.44;;;2.49;100.00
70468;BME280;57934;51.532;7.684;2023-03-07T03:10:29;98510.47;;;2.51;100.00
70468;BME280;57934;51.532;7.684;2023-03-07T03:12:58;98511.53;;;2.56;100.00
70468;BME280;57934;51.532;7.684;2023-03-07T03:15:25;98509.09;;;2.55;100.00
70468;BME280;57934;51.532;7.684;2023-03-07T03:17:54;98502.72;;;2.57;100.00
70468;BME280;57934;51.532;7.684;2023-03-07T03:20:20;98504.31;;;2.58;100.00
70468;BME280;57934;51.532;7.684;2023-03-07T03:22:46;98498.13;;;2.59;100.00
70468;BME280;57934;51.532;7.684;2023-03-07T03:25:13;98500.72;;;2.59;100.00
70468;BME280;57934;51.532;7.684;2023-03-07T03:27:41;98505.50;;;2.56;100.00
70468;BME280;57934;51.532;7.684;2023-03-07T03:30:10;98497.69;;;2.56;100.00
70468;BME280;57934;51.532;7.684;2023-03-07T03:32:37;98490.88;;;2.55;100.00
70468;BME280;57934;51.532;7.684;2023-03-07T03:35:05;98494.28;;;2.55;100.00
70468;BME280;57934;51.532;7.684;2023-03-07T03:37:32;98497.91;;;2.54;100.00
70468;BME280;57934;51.532;7.684;2023-03-07T03:39:59;98486.50;;;2.55;100.00
70468;BME280;57934;51.532;7.684;2023-03-07T03:42:25;98495.50;;;2.53;100.00
70468;BME280;57934;51.532;7.684;2023-03-07T03:44:52;98489.34;;;2.60;100.00
70468;BME280;57934;51.532;7.684;2023-03-07T03:47:18;98489.34;;;2.60;100.00
70468;BME280;57934;51.532;7.684;2023-03-07T03:49:44;98490.94;;;2.61;100.00
70468;BME280;57934;51.532;7.684;2023-03-07T03:52:10;98486.97;;;2.66;100.00
70468;BME280;57934;51.532;7.684;2023-03-07T03:54:36;98479.38;;;2.64;100.00
70468;BME280;57934;51.532;7.684;2023-03-07T03:57:03;98488.34;;;2.61;100.00
70468;BME280;57934;51.532;7.684;2023-03-07T03:59:30;98485.75;;;2.61;100.00
70468;BME280;57934;51.532;7.684;2023-03-07T04:01:57;98470.88;;;2.55;100.00
70468;BME280;57934;51.532;7.684;2023-03-07T04:04:23;98466.47;;;2.56;100.00
70468;BME280;57934;51.532;7.684;2023-03-07T04:06:49;98472.25;;;2.51;100.00
70468;BME280;57934;51.532;7.684;2023-03-07T04:09:16;98475.84;;;2.50;100.00
70468;BME280;57934;51.532;7.684;2023-03-07T04:11:45;98474.25;;;2.49;100.00
70468;BME280;57934;51.532;7.684;2023-03-07T04:14:12;98468.22;;;2.49;100.00
70468;BME280;57934;51.532;7.684;2023-03-07T04:16:38;98472.63;;;2.48;100.00
70468;BME280;57934;51.532;7.684;2023-03-07T04:19:04;98463.38;;;2.46;100.00
70468;BME280;57934;51.532;7.684;2023-03-07T04:21:30;98463.22;;;2.47;100.00
70468;BME280;57934;51.532;7.684;2023-03-07T04:23:58;98463.59;;;2.44;100.00
70468;BME280;57934;51.532;7.684;2023-03-07T04:26:28;98457.00;;;2.48;100.00
70468;BME280;57934;51.532;7.684;2023-03-07T04:28:54;98457.81;;;2.49;100.00
70468;BME280;57934;51.532;7.684;2023-03-07T04:31:32;98452.81;;;2.47;100.00
70468;BME280;57934;51.532;7.684;2023-03-07T04:34:01;98452.59;;;2.49;100.00
70468;BME280;57934;51.532;7.684;2023-03-07T04:36:27;98441.59;;;2.47;100.00
70468;BME280;57934;51.532;7.684;2023-03-07T04:38:54;98445.56;;;2.43;100.00
70468;BME280;57934;51.532;7.684;2023-03-07T04:41:23;98443.50;;;2.38;100.00
70468;BME280;57934;51.532;7.684;2023-03-07T04:43:55;98443.34;;;2.39;100.00
70468;BME280;57934;51.532;7.684;2023-03-07T04:46:23;98441.16;;;2.43;100.00
70468;BME280;57934;51.532;7.684;2023-03-07T04:48:49;98444.22;;;2.47;100.00
70468;BME280;57934;51.532;7.684;2023-03-07T04:51:16;98432.81;;;2.48;100.00
70468;BME280;57934;51.532;7.684;2023-03-07T04:53:43;98431.81;;;2.49;100.00
70468;BME280;57934;51.532;7.684;2023-03-07T04:56:09;98438.19;;;2.46;100.00
70468;BME280;57934;51.532;7.684;2023-03-07T04:58:37;98430.81;;;2.50;100.00
70468;BME280;57934;51.532;7.684;2023-03-07T05:01:04;98439.59;;;2.49;100.00
70468;BME280;57934;51.532;7.684;2023-03-07T05:03:32;98430.19;;;2.48;100.00
70468;BME280;57934;51.532;7.684;2023-03-07T05:06:04;98430.19;;;2.48;100.00
70468;BME280;57934;51.532;7.684;2023-03-07T05:08:31;98429.03;;;2.50;100.00
70468;BME280;57934;51.532;7.684;2023-03-07T05:10:58;98427.59;;;2.48;100.00
70468;BME280;57934;51.532;7.684;2023-03-07T05:13:24;98429.41;;;2.47;100.00
70468;BME280;57934;51.532;7.684;2023-03-07T05:15:53;98420.38;;;2.43;100.00
70468;BME280;57934;51.532;7.684;2023-03-07T05:18:22;98408.38;;;2.49;100.00
70468;BME280;57934;51.532;7.684;2023-03-07T05:20:49;98407.41;;;2.50;100.00
70468;BME280;57934;51.532;7.684;2023-03-07T05:23:16;98408.81;;;2.52;100.00
70468;BME280;57934;51.532;7.684;2023-03-07T05:25:44;98409.25;;;2.56;100.00
70468;BME280;57934;51.532;7.684;2023-03-07T05:28:12;98409.22;;;2.49;100.00
70468;BME280;57934;51.532;7.684;2023-03-07T05:30:38;98405.25;;;2.53;100.00
70468;BME280;57934;51.532;7.684;2023-03-07T05:33:04;98400.84;;;2.54;100.00
70468;BME280;57934;51.532;7.684;2023-03-07T05:35:31;98393.63;;;2.56;100.00
70468;BME280;57934;51.532;7.684;2023-03-07T05:37:59;98393.25;;;2.59;100.00
70468;BME280;57934;51.532;7.684;2023-03-07T05:40:25;98393.03;;;2.54;100.00
70468;BME280;57934;51.532;7.684;2023-03-07T05:42:51;98395.63;;;2.54;100.00
70468;BME280;57934;51.532;7.684;2023-03-07T05:45:18;98390.50;;;2.60;100.00
70468;BME280;57934;51.532;7.684;2023-03-07T05:47:46;98392.47;;;2.58;100.00
70468;BME280;57934;51.532;7.684;2023-03-07T05:50:13;98397.66;;;2.58;100.00
70468;BME280;57934;51.532;7.684;2023-03-07T05:52:40;98394.47;;;2.56;100.00
70468;BME280;57934;51.532;7.684;2023-03-07T05:55:07;98402.28;;;2.56;100.00
70468;BME280;57934;51.532;7.684;2023-03-07T05:57:33;98398.84;;;2.56;100.00
70468;BME280;57934;51.532;7.684;2023-03-07T06:00:00;98398.03;;;2.55;100.00
70468;BME280;57934;51.532;7.684;2023-03-07T06:02:26;98396.06;;;2.57;100.00
70468;BME280;57934;51.532;7.684;2023-03-07T06:04:52;98400.28;;;2.58;100.00
70468;BME280;57934;51.532;7.684;2023-03-07T06:07:19;98390.50;;;2.60;100.00
70468;BME280;57934;51.532;7.684;2023-03-07T06:09:46;98388.44;;;2.56;100.00
70468;BME280;57934;51.532;7.684;2023-03-07T06:12:13;98395.31;;;2.63;100.00
70468;BME280;57934;51.532;7.684;2023-03-07T06:14:39;98394.31;;;2.65;100.00
70468;BME280;57934;51.532;7.684;2023-03-07T06:17:05;98384.66;;;2.58;100.00
70468;BME280;57934;51.532;7.684;2023-03-07T06:19:33;98385.03;;;2.55;100.00
70468;BME280;57934;51.532;7.684;2023-03-07T06:21:59;98385.22;;;2.54;100.00
70468;BME280;57934;51.532;7.684;2023-03-07T06:24:26;98382.00;;;2.52;100.00
70468;BME280;57934;51.532;7.684;2023-03-07T06:26:52;98383.63;;;2.53;100.00
70468;BME280;57934;51.532;7.684;2023-03-07T06:29:21;98383.63;;;2.53;100.00
70468;BME280;57934;51.532;7.684;2023-03-07T06:31:48;98378.38;;;2.46;100.00
70468;BME280;57934;51.532;7.684;2023-03-07T06:34:14;98383.81;;;2.51;100.00
70468;BME280;57934;51.532;7.684;2023-03-07T06:36:41;98384.22;;;2.55;100.00
70468;BME280;57934;51.532;7.684;2023-03-07T06:39:07;98374.81;;;2.54;100.00
70468;BME280;57934;51.532;7.684;2023-03-07T06:41:34;98379.78;;;2.49;100.00
70468;BME280;57934;51.532;7.684;2023-03-07T06:44:02;98377.59;;;2.52;100.00
70468;BME280;57934;51.532;7.684;2023-03-07T06:46:31;98375.25;;;2.57;100.00
70468;BME280;57934;51.532;7.684;2023-03-07T06:48:59;98375.25;;;2.57;100.00
70468;BME280;57934;51.532;7.684;2023-03-07T06:51:25;98369.81;;;2.52;100.00
70468;BME280;57934;51.532;7.684;2023-03-07T06:53:54;98363.84;;;2.58;100.00
70468;BME280;57934;51.532;7.684;2023-03-07T06:56:20;98366.28;;;2.60;100.00
70468;BME280;57934;51.532;7.684;2023-03-07T06:58:46;98366.81;;;2.55;100.00
70468;BME280;57934;51.532;7.684;2023-03-07T07:01:18;98367.25;;;2.59;100.00
70468;BME280;57934;51.532;7.684;2023-03-07T07:03:48;98373.06;;;2.61;100.00
70468;BME280;57934;51.532;7.684;2023-03-07T07:06:15;98369.72;;;2.67;100.00
70468;BME280;57934;51.532;7.684;2023-03-07T07:08:41;98369.72;;;2.67;100.00
70468;BME280;57934;51.532;7.684;2023-03-07T07:11:08;98367.56;;;2.71;100.00
70468;BME280;57934;51.532;7.684;2023-03-07T07:13:35;98365.69;;;2.65;100.00
70468;BME280;57934;51.532;7.684;2023-03-07T07:16:06;98367.28;;;2.66;100.00
70468;BME280;57934;51.532;7.684;2023-03-07T07:18:33;98367.72;;;2.69;100.00
70468;BME280;57934;51.532;7.684;2023-03-07T07:21:00;98363.75;;;2.73;100.00
70468;BME280;57934;51.532;7.684;2023-03-07T07:23:26;98364.75;;;2.72;100.00
70468;BME280;57934;51.532;7.684;2023-03-07T07:25:53;98361.56;;;2.77;100.00
70468;BME280;57934;51.532;7.684;2023-03-07T07:28:19;98364.00;;;2.78;100.00
70468;BME280;57934;51.532;7.684;2023-03-07T07:30:45;98357.97;;;2.78;100.00
70468;BME280;57934;51.532;7.684;2023-03-07T07:33:14;98359.78;;;2.77;100.00
70468;BME280;57934;51.532;7.684;2023-03-07T07:35:43;98357.41;;;2.82;100.00
70468;BME280;57934;51.532;7.684;2023-03-07T07:38:11;98361.22;;;2.86;100.00
70468;BME280;57934;51.532;7.684;2023-03-07T07:40:37;98355.47;;;2.98;100.00
70468;BME280;57934;51.532;7.684;2023-03-07T07:43:04;98363.13;;;2.99;100.00
70468;BME280;57934;51.532;7.684;2023-03-07T07:45:36;98364.72;;;3.00;100.00
70468;BME280;57934;51.532;7.684;2023-03-07T07:48:04;98362.50;;;2.97;100.00
70468;BME280;57934;51.532;7.684;2023-03-07T07:50:30;98366.69;;;2.92;100.00
70468;BME280;57934;51.532;7.684;2023-03-07T07:52:57;98366.47;;;2.93;100.00
70468;BME280;57934;51.532;7.684;2023-03-07T07:55:23;98362.88;;;2.94;100.00
70468;BME280;57934;51.532;7.684;2023-03-07T07:57:50;98359.50;;;3.00;100.00
70468;BME280;57934;51.532;7.684;2023-03-07T08:00:18;98363.31;;;3.04;100.00
70468;BME280;57934;51.532;7.684;2023-03-07T08:02:47;98356.13;;;3.06;100.00
70468;BME280;57934;51.532;7.684;2023-03-07T08:05:15;98364.53;;;3.08;100.00
70468;BME280;57934;51.532;7.684;2023-03-07T08:07:41;98365.75;;;3.06;100.00
70468;BME280;57934;51.532;7.684;2023-03-07T08:10:09;98363.75;;;3.08;100.00
70468;BME280;57934;51.532;7.684;2023-03-07T08:12:35;98373.16;;;3.02;100.00
70468;BME280;57934;51.532;7.684;2023-03-07T08:15:02;98360.69;;;2.98;100.00
70468;BME280;57934;51.532;7.684;2023-03-07T08:17:28;98355.84;;;2.95;100.00
70468;BME280;57934;51.532;7.684;2023-03-07T08:19:55;98357.06;;;2.92;100.00
70468;BME280;57934;51.532;7.684;2023-03-07T08:22:26;98361.47;;;2.98;100.00
70468;BME280;57934;51.532;7.684;2023-03-07T08:24:52;98365.88;;;2.98;100.00
70468;BME280;57934;51.532;7.684;2023-03-07T08:27:18;98362.91;;;3.01;100.00
70468;BME280;57934;51.532;7.684;2023-03-07T08:29:48;98361.47;;;2.92;100.00
70468;BME280;57934;51.532;7.684;2023-03-07T08:32:14;98364.88;;;2.92;100.00
70468;BME280;57934;51.532;7.684;2023-03-07T08:34:40;98375.03;;;2.87;100.00
70468;BME280;57934;51.532;7.684;2023-03-07T08:37:06;98372.06;;;2.90;100.00
70468;BME280;57934;51.532;7.684;2023-03-07T08:39:32;98374.50;;;2.98;100.00
70468;BME280;57934;51.532;7.684;2023-03-07T08:41:58;98366.31;;;3.01;100.00
70468;BME280;57934;51.532;7.684;2023-03-07T08:44:25;98372.31;;;2.95;100.00
70468;BME280;57934;51.532;7.684;2023-03-07T08:46:51;98373.69;;;2.98;100.00
70468;BME280;57934;51.532;7.684;2023-03-07T08:49:17;98375.09;;;2.94;100.00
70468;BME280;57934;51.532;7.684;2023-03-07T08:51:46;98374.28;;;2.93;100.00
70468;BME280;57934;51.532;7.684;2023-03-07T08:54:21;98375.28;;;2.92;100.00
70468;BME280;57934;51.532;7.684;2023-03-07T08:57:33;98377.44;;;2.82;100.00
70468;BME280;57934;51.532;7.684;2023-03-07T08:59:59;98373.81;;;2.83;100.00
70468;BME280;57934;51.532;7.684;2023-03-07T09:02:25;98377.22;;;2.83;100.00
70468;BME280;57934;51.532;7.684;2023-03-07T09:04:51;98379.06;;;2.90;100.00
70468;BME280;57934;51.532;7.684;2023-03-07T09:07:17;98376.84;;;2.86;100.00
70468;BME280;57934;51.532;7.684;2023-03-07T09:09:44;98377.88;;;2.92;100.00
70468;BME280;57934;51.532;7.684;2023-03-07T09:12:10;98377.25;;;2.90;100.00
70468;BME280;57934;51.532;7.684;2023-03-07T09:14:36;98377.88;;;2.92;100.00
70468;BME280;57934;51.532;7.684;2023-03-07T09:17:02;98381.88;;;2.95;100.00
70468;BME280;57934;51.532;7.684;2023-03-07T09:19:33;98386.28;;;2.94;100.00
70468;BME280;57934;51.532;7.684;2023-03-07T09:22:02;98391.47;;;2.87;100.00
70468;BME280;57934;51.532;7.684;2023-03-07T09:24:28;98395.69;;;2.89;100.00
70468;BME280;57934;51.532;7.684;2023-03-07T09:26:55;98397.66;;;2.86;100.00
70468;BME280;57934;51.532;7.684;2023-03-07T09:29:22;98399.88;;;2.90;100.00
70468;BME280;57934;51.532;7.684;2023-03-07T09:31:48;98399.78;;;2.76;100.00
70468;BME280;57934;51.532;7.684;2023-03-07T09:34:14;98403.13;;;2.42;100.00
70468;BME280;57934;51.532;7.684;2023-03-07T09:36:40;98411.22;;;2.26;100.00
70468;BME280;57934;51.532;7.684;2023-03-07T09:39:06;98407.03;;;2.10;100.00
70468;BME280;57934;51.532;7.684;2023-03-07T09:47:37;98422.03;;;1.72;100.00
70468;BME280;57934;51.532;7.684;2023-03-07T09:50:15;98424.75;;;1.63;100.00
70468;BME280;57934;51.532;7.684;2023-03-07T09:52:44;98426.25;;;1.58;100.00
70468;BME280;57934;51.532;7.684;2023-03-07T09:55:14;98422.44;;;1.39;100.00
70468;BME280;57934;51.532;7.684;2023-03-07T09:57:47;98431.22;;;1.08;100.00
70468;BME280;57934;51.532;7.684;2023-03-07T10:00:25;98440.53;;;0.88;100.00
70468;BME280;57934;51.532;7.684;2023-03-07T10:05:46;98439.06;;;0.70;100.00
70468;BME280;57934;51.532;7.684;2023-03-07T10:08:19;98437.28;;;0.71;100.00
70468;BME280;57934;51.532;7.684;2023-03-07T10:10:57;98436.75;;;0.76;100.00
70468;BME280;57934;51.532;7.684;2023-03-07T10:19:30;98444.75;;;0.66;100.00
70468;BME280;57934;51.532;7.684;2023-03-07T10:27:10;98445.06;;;0.71;100.00
70468;BME280;57934;51.532;7.684;2023-03-07T10:29:46;98444.31;;;0.62;100.00
70468;BME280;57934;51.532;7.684;2023-03-07T10:35:06;98450.03;;;0.58;100.00
70468;BME280;57934;51.532;7.684;2023-03-07T10:38:01;98446.84;;;0.70;100.00
70468;BME280;57934;51.532;7.684;2023-03-07T10:40:42;98453.09;;;0.76;100.00
70468;BME280;57934;51.532;7.684;2023-03-07T10:43:28;98456.34;;;0.78;100.00
70468;BME280;57934;51.532;7.684;2023-03-07T10:46:13;98458.75;;;0.94;100.00
70468;BME280;57934;51.532;7.684;2023-03-07T10:49:17;98458.88;;;1.01;100.00
70468;BME280;57934;51.532;7.684;2023-03-07T10:54:22;98462.75;;;1.20;100.00
70468;BME280;57934;51.532;7.684;2023-03-07T10:57:09;98465.16;;;1.22;100.00
70468;BME280;57934;51.532;7.684;2023-03-07T10:59:43;98454.31;;;1.18;100.00
70468;BME280;57934;51.532;7.684;2023-03-07T11:04:54;98462.31;;;1.31;100.00
70468;BME280;57934;51.532;7.684;2023-03-07T11:07:31;98468.03;;;1.27;100.00
70468;BME280;57934;51.532;7.684;2023-03-07T11:10:04;98470.19;;;1.23;100.00
70468;BME280;57934;51.532;7.684;2023-03-07T11:12:50;98480.38;;;1.25;100.00
70468;BME280;57934;51.532;7.684;2023-03-07T11:15:21;98469.44;;;1.29;100.00
70468;BME280;57934;51.532;7.684;2023-03-07T11:17:50;98472.59;;;1.25;100.00
70468;BME280;57934;51.532;7.684;2023-03-07T11:20:30;98472.22;;;1.13;100.00
70468;BME280;57934;51.532;7.684;2023-03-07T11:25:41;98478.69;;;1.32;100.00
70468;BME280;57934;51.532;7.684;2023-03-07T11:28:29;98471.22;;;1.43;100.00
70468;BME280;57934;51.532;7.684;2023-03-07T11:33:43;98474.56;;;1.52;100.00
70468;BME280;57934;51.532;7.684;2023-03-07T11:36:22;98477.25;;;1.44;100.00
70468;BME280;57934;51.532;7.684;2023-03-07T11:41:30;98479.38;;;1.26;100.00
70468;BME280;57934;51.532;7.684;2023-03-07T11:47:00;98478.72;;;1.09;100.00
70468;BME280;57934;51.532;7.684;2023-03-07T11:49:38;98476.53;;;1.06;100.00
70468;BME280;57934;51.532;7.684;2023-03-07T12:00:30;98479.47;;;1.47;100.00
70468;BME280;57934;51.532;7.684;2023-03-07T12:14:21;98474.50;;;1.82;100.00
70468;BME280;57934;51.532;7.684;2023-03-07T12:24:34;98475.38;;;1.53;100.00
70468;BME280;57934;51.532;7.684;2023-03-07T12:29:38;98484.50;;;1.49;100.00
70468;BME280;57934;51.532;7.684;2023-03-07T12:32:11;98483.50;;;1.50;100.00
70468;BME280;57934;51.532;7.684;2023-03-07T12:34:45;98483.34;;;1.51;100.00
70468;BME280;57934;51.532;7.684;2023-03-07T12:37:20;98475.91;;;1.63;100.00
70468;BME280;57934;51.532;7.684;2023-03-07T12:39:51;98478.47;;;1.78;100.00
70468;BME280;57934;51.532;7.684;2023-03-07T12:42:43;98485.47;;;1.77;100.00
70468;BME280;57934;51.532;7.684;2023-03-07T12:45:19;98481.59;;;1.88;100.00
70468;BME280;57934;51.532;7.684;2023-03-07T12:52:55;98483.50;;;2.15;100.00
70468;BME280;57934;51.532;7.684;2023-03-07T12:55:37;98477.22;;;2.25;100.00
70468;BME280;57934;51.532;7.684;2023-03-07T13:00:53;98480.78;;;2.24;100.00
70468;BME280;57934;51.532;7.684;2023-03-07T13:03:50;98468.59;;;2.24;100.00
70468;BME280;57934;51.532;7.684;2023-03-07T13:06:19;98466.63;;;2.26;100.00
70468;BME280;57934;51.532;7.684;2023-03-07T13:09:01;98464.31;;;2.17;100.00
70468;BME280;57934;51.532;7.684;2023-03-07T13:11:33;98467.03;;;2.30;100.00
70468;BME280;57934;51.532;7.684;2023-03-07T13:14:03;98471.44;;;2.29;100.00
70468;BME280;57934;51.532;7.684;2023-03-07T13:21:56;98467.53;;;2.40;100.00
70468;BME280;57934;51.532;7.684;2023-03-07T13:28:40;98474.03;;;2.51;100.00
70468;BME280;57934;51.532;7.684;2023-03-07T13:31:23;98469.41;;;2.46;100.00
70468;BME280;57934;51.532;7.684;2023-03-07T13:36:37;98469.00;;;2.28;100.00
70468;BME280;57934;51.532;7.684;2023-03-07T13:39:35;98469.56;;;2.23;100.00
70468;BME280;57934;51.532;7.684;2023-03-07T13:42:02;98466.19;;;2.23;100.00
70468;BME280;57934;51.532;7.684;2023-03-07T13:44:29;98470.00;;;2.27;100.00
70468;BME280;57934;51.532;7.684;2023-03-07T13:47:01;98461.59;;;2.25;100.00
70468;BME280;57934;51.532;7.684;2023-03-07T13:49:34;98468.84;;;2.29;100.00
70468;BME280;57934;51.532;7.684;2023-03-07T13:54:48;98468.28;;;2.34;100.00
70468;BME280;57934;51.532;7.684;2023-03-07T13:57:17;98469.50;;;2.38;100.00
70468;BME280;57934;51.532;7.684;2023-03-07T13:59:47;98463.09;;;2.34;100.00
70468;BME280;57934;51.532;7.684;2023-03-07T14:02:15;98469.22;;;2.26;100.00
70468;BME280;57934;51.532;7.684;2023-03-07T14:04:48;98466.69;;;2.33;100.00
70468;BME280;57934;51.532;7.684;2023-03-07T14:09:50;98472.66;;;2.12;100.00
70468;BME280;57934;51.532;7.684;2023-03-07T14:12:32;98474.63;;;2.10;100.00
70468;BME280;57934;51.532;7.684;2023-03-07T14:26:24;98479.88;;;1.95;100.00
70468;BME280;57934;51.532;7.684;2023-03-07T14:28:57;98473.69;;;1.96;100.00
70468;BME280;57934;51.532;7.684;2023-03-07T14:31:36;98476.63;;;2.08;100.00
70468;BME280;57934;51.532;7.684;2023-03-07T14:34:15;98481.91;;;2.14;100.00
70468;BME280;57934;51.532;7.684;2023-03-07T14:36:42;98473.53;;;2.19;100.00
70468;BME280;57934;51.532;7.684;2023-03-07T14:39:11;98480.81;;;2.09;100.00
70468;BME280;57934;51.532;7.684;2023-03-07T14:50:25;98492.63;;;2.26;100.00
70468;BME280;57934;51.532;7.684;2023-03-07T14:52:58;98492.19;;;2.23;100.00
70468;BME280;57934;51.532;7.684;2023-03-07T14:55:26;98486.53;;;2.19;100.00
70468;BME280;57934;51.532;7.684;2023-03-07T14:57:56;98484.09;;;2.18;100.00
70468;BME280;57934;51.532;7.684;2023-03-07T15:00:25;98482.88;;;2.13;100.00
70468;BME280;57934;51.532;7.684;2023-03-07T15:02:53;98484.09;;;2.18;100.00
70468;BME280;57934;51.532;7.684;2023-03-07T15:05:48;98481.69;;;2.16;100.00
70468;BME280;57934;51.532;7.684;2023-03-07T15:11:07;98476.19;;;2.04;100.00
70468;BME280;57934;51.532;7.684;2023-03-07T15:13:58;98473.44;;;1.91;100.00
70468;BME280;57934;51.532;7.684;2023-03-07T15:16:35;98475.03;;;1.92;100.00
70468;BME280;57934;51.532;7.684;2023-03-07T15:21:53;98487.13;;;2.00;100.00
70468;BME280;57934;51.532;7.684;2023-03-07T15:26:52;98486.66;;;2.11;100.00